Aviation Digital Data Service (ADDS)

Output produced by METARs form (2252 UTC 23 May 2022)
found at http://www.aviationweather.gov/metar/data/
 
KPAE 231740Z 2318/2418 34008KT P6SM BKN040 OVC070 
     FM232300 VRB03KT P6SM OVC025 
     FM240400 34006KT P6SM SCT035 BKN050 
     FM241400 16004KT P6SM OVC050
       
TAF AMD KPAM 232020Z 2320/2501 28009KT 9999 BKN100 QNH3000INS 
     TEMPO 2320/2322 22012G18KT 4800 -TSRA BKN020CB 
     BECMG 2321/2322 22009KT 9999 BKN100 QNH2997INS WND 11003KT AFT 2403 
     BECMG 2411/2412 14006KT 9999 BKN030 QNH2997INS 
     TEMPO 2417/2421 15012G18KT 4800 -TSRA BKN020CB 
     BECMG 2420/2421 16009KT 9999 BKN100 QNH2996INS TX29/2320Z TN22/2411Z
       
KPBF 231720Z 2318/2418 03008KT P6SM SCT025 BKN035 
     TEMPO 2318/2322 BKN025 
     FM240500 04005KT P6SM BKN025 OVC050 
     FM241500 10007KT P6SM SCT007 BKN015
       
KPBG 231723Z 2318/2418 04010KT P6SM FEW250 
     FM232300 35005KT P6SM SCT250 
     FM240200 00000KT P6SM SCT200 
     FM241300 03005KT P6SM FEW150 
     FM241700 12007KT P6SM FEW150
       
KPBI 232055Z 2321/2418 12014G22KT P6SM SCT025 SCT050 
     FM240200 12009KT P6SM FEW020 SCT250 
     FM241400 12014KT P6SM SCT025
       
KPDK 231758Z 2318/2418 20011G26KT P6SM VCSH SCT023 BKN028 OVC035 
     FM232300 25012G25KT P6SM BKN015 
     FM240800 VRB03KT 2SM BR OVC008 
     FM241300 28004KT 6SM BR BKN004 
     FM241700 24004KT P6SM BKN030
       
KPDT 231742Z 2318/2418 27011KT P6SM BKN110 
     FM232300 25014G22KT P6SM VCSH SCT070 BKN110 
     FM240500 26011KT P6SM BKN100 OVC250 
     FM240900 14005KT P6SM BKN250
       
KPDX 232110Z 2321/2418 VRB06KT P6SM FEW050 BKN080 BKN250 
     FM232300 31009KT P6SM BKN080 BKN250 
     FM240500 32005KT P6SM BKN250 
     FM241500 34002KT P6SM FEW025 BKN050
       
KPGA 231734Z 2318/2418 33010KT P6SM BKN120 
     FM231900 34006KT P6SM VCSH BKN100 
     FM232300 34006KT P6SM SCT100 
     FM240300 33006KT P6SM FEW250
       
KPGD 232242Z 2323/2418 25008KT P6SM VCTS SCT040CB BKN250 
     TEMPO 2323/2324 VRB15G25KT 1SM +TSRA BKN025CB 
     FM240200 11005KT P6SM BKN250 
     FM241400 14009KT P6SM FEW030 SCT250
       
KPGV 232056Z 2321/2418 08008G13KT P6SM VCTS SCT025CB BKN045 
     TEMPO 2321/2324 2SM +TSRA BKN015CB 
     FM240300 09006KT 4SM BR VCSH OVC006 
     FM240900 12005KT 4SM BR OVC006 
     FM241600 18008KT P6SM BKN015 AMD LTD TO CLD VIS AND WIND
       
KPHF 232005Z 2320/2418 09012KT P6SM OVC028 
     FM232200 08008KT P6SM OVC035 
     FM240300 05004KT P6SM -SHRA OVC030 
     FM240700 07005KT 6SM -SHRA OVC015 
     FM241000 07007KT 6SM SHRA OVC008
       
KPHL 232100Z 2321/2424 34008KT P6SM BKN200 
     FM232300 VRB04KT P6SM BKN100 
     FM240600 VRB02KT P6SM OVC060 
     FM241500 10008KT P6SM BKN060
       
KPHX 232042Z 2321/2424 25010G20KT P6SM FEW250 
     FM240500 26008KT P6SM FEW250 
     FM241000 09005KT P6SM FEW250 
     FM241900 30008KT P6SM FEW250
       
KPIA 231720Z 2318/2418 07009KT P6SM FEW050 SCT250
       
KPIB 231741Z 2318/2418 12005KT P6SM BKN016 
     FM231900 12005KT P6SM SCT020 
     FM232100 13005KT P6SM VCSH SCT035 BKN050 
     FM240000 11003KT P6SM BKN050 
     FM240700 00000KT P6SM OVC007 
     FM241100 08003KT 4SM BR OVC003 
     FM241400 14007KT P6SM OVC007 
     FM241500 15008KT P6SM OVC015 
     FM241700 16009KT P6SM BKN050
       
KPIE 231727Z 2318/2418 18007KT P6SM SCT030 BKN250 
     FM232000 25010KT P6SM SCT030 BKN250 
     FM232300 29007KT P6SM SCT030 BKN250 
     FM240300 11004KT P6SM BKN250 
     FM241400 16008KT P6SM FEW030 SCT250
       
KPIH 231720Z 2318/2418 28007KT P6SM SCT200 
     FM240300 22007KT P6SM BKN150 
     FM241500 25008G15KT P6SM SCT200
       
KPIR 231739Z 2318/2418 20015G24KT P6SM BKN150 
     FM232200 18018G26KT P6SM VCSH BKN070 
     FM240000 16010G18KT P6SM BKN070 
     FM240800 14007KT P6SM FEW100
       
KPIT 232052Z 2321/2424 06006KT P6SM OVC080 
     FM241400 09006KT P6SM BKN025 
     FM241900 12006KT P6SM BKN025 
     FM242100 11007KT P6SM BKN040
       
KPKB 231732Z 2318/2418 07007KT P6SM VCSH OVC060 
     TEMPO 2318/2321 4SM -SHRA OVC025 
     FM240000 06005KT P6SM OVC070 
     FM240600 VRB03KT P6SM BKN090 
     FM241200 VRB03KT P6SM BKN030 
     FM241600 VRB03KT P6SM BKN035
       
KPMD 232207Z 2322/2418 VRB03KT P6SM SKC 
     FM240000 28014KT P6SM SKC 
     FM240400 22008KT P6SM SKC
       
KPNA 231720Z 2318/2418 VRB04KT P6SM SCT100 
     FM232000 VRB05KT P6SM BKN100 
     FM240000 31010G20KT P6SM VCSH OVC070
       
KPNE 231734Z 2318/2418 35008KT P6SM SCT200 
     FM240000 VRB03KT P6SM BKN100 
     FM240600 VRB03KT P6SM OVC060 
     FM241400 10008KT P6SM BKN060
       
KPNS 232017Z 2320/2418 20006KT P6SM VCSH FEW040 SCT100 OVC200 
     FM240000 20006KT P6SM VCSH SCT015 BKN050 OVC100 
     TEMPO 2400/2404 3SM TSRA BKN015CB 
     FM240400 13004KT P6SM VCSH SCT020 OVC100 
     PROB30 2408/2414 5SM TSRA BKN020CB 
     FM241400 13010KT P6SM SCT020 BKN120 
     TEMPO 2414/2418 3SM TSRA BKN020CB
       
TAF AMD KPOB 231836Z 2318/2423 VRB05KT 9999 SCT025 BKN035 BKN120 BKN200
QNH3003INS 
     BECMG 2318/2319 21010G15KT 8000 -SHRA VCTS SCT025 BKN035CB BKN120 BKN200
QNH2999INS 
     TEMPO 2320/2324 VRB25G37KT 1600 TSRA SCT010 BKN020CB OVC050 
     BECMG 2323/2324 12010G15KT 8000 -SHRA VCTS SCT008 BKN015CB OVC040
QNH2995INS 
     TEMPO 2402/2405 VRB15G25KT 1600 TSRA BKN005 OVC010CB 
     BECMG 2404/2405 16009KT 8000 -SHRA BR OVC005 QNH2995INS 
     BECMG 2414/2415 21012G18KT 8000 -SHRA SCT010 BKN020 BKN080 OVC120
QNH2998INS 
     BECMG 2417/2418 32012G18KT 9999 NSW SCT025 BKN040 BKN150 QNH2998INS
TX31/2319Z TN20/2410Z
       
KPOU 231727Z 2318/2418 01012G18KT P6SM SCT200 
     FM240200 01004KT P6SM BKN120 
     FM241400 09005KT P6SM BKN045
       
KPQI 231720Z 2318/2418 33010G18KT P6SM SCT035 
     FM232300 34007KT P6SM SCT250 
     FM241400 03004KT P6SM FEW250
       
KPRB 231737Z 2318/2418 VRB03KT P6SM SKC 
     FM232000 31010KT P6SM SKC 
     FM232300 31015G20KT P6SM SKC 
     FM240800 VRB05KT P6SM SKC
       
KPRC 231734Z 2318/2418 24005KT P6SM SKC 
     FM232000 26016G26KT P6SM FEW250 
     FM240300 28010KT P6SM FEW250 
     FM241500 VRB03KT P6SM SKC
       
KPSC 231742Z 2318/2418 20007KT P6SM BKN110 
     FM232100 25011KT P6SM VCSH BKN070 BKN110 
     FM240300 28012KT P6SM BKN250 
     FM240800 VRB02KT P6SM BKN250
       
KPSF 232027Z 2320/2418 34009KT P6SM SCT250 
     FM240100 36004KT P6SM BKN130 
     FM240800 06004KT P6SM BKN130 
     FM241500 11005KT P6SM SCT060
       
KPSM 231736Z 2318/2418 33007KT P6SM BKN250 
     FM240000 VRB04KT P6SM OVC250 
     FM241400 08008KT P6SM BKN150
       
KPSP 231739Z 2318/2418 VRB05KT P6SM SKC 
     FM240000 33012G20KT P6SM SKC 
     FM240700 VRB04KT P6SM SKC
       
KPUB 232118Z 2321/2418 07012KT P6SM VCSH BKN035 OVC100 
     FM232300 08008KT 5SM SHRA BKN020 BKN060 
     FM240600 02007KT 3SM -RA BR OVC009 
     FM241200 03007KT P6SM VCSH OVC015
       
KPUW 231740Z 2318/2418 12005KT P6SM FEW120 BKN200 
     FM231900 15007KT P6SM SCT090 BKN150 
     FM232200 24010G18KT P6SM VCSH BKN060 BKN100 
     FM240000 23009KT P6SM -SHRA BKN050 BKN100 
     TEMPO 2401/2404 -TSRA SCT025 OVC040CB 
     FM240700 23008KT P6SM FEW020 BKN030
       
KPVD 232042Z 2321/2418 03007KT P6SM SCT050 
     FM240300 VRB03KT P6SM BKN220 
     FM240900 02004KT P6SM BKN100 
     FM241200 04008KT P6SM BKN110
       
KPVU 231734Z 2318/2418 30008KT P6SM SCT250 
     FM241000 17005KT P6SM FEW100 
     FM241700 33004KT P6SM SKC
       
KPWM 231736Z 2318/2418 33010G17KT P6SM SCT150 
     FM240000 VRB03KT P6SM BKN250 
     FM241600 11007KT P6SM SCT150
       
KPWT 231740Z 2318/2418 21008KT P6SM SCT006 BKN015 OVC040 
     FM232000 22008KT P6SM SCT020 BKN040 
     FM241300 19006KT P6SM OVC011